sensor_id;sensor_type;location;lat;lon;timestamp;P1;durP1;ratioP1;P2;durP2;ratioP2
56911;SDS011;42800;53.928;27.662;2022-08-05T00:01:48;9.40;;;8.05;;
56911;SDS011;42800;53.928;27.662;2022-08-05T00:04:15;11.85;;;8.60;;
56911;SDS011;42800;53.928;27.662;2022-08-05T00:06:41;11.85;;;8.02;;
56911;SDS011;42800;53.928;27.662;2022-08-05T00:09:07;10.65;;;8.88;;
56911;SDS011;42800;53.928;27.662;2022-08-05T00:11:33;12.73;;;8.98;;
56911;SDS011;42800;53.928;27.662;2022-08-05T00:13:59;9.68;;;7.95;;
56911;SDS011;42800;53.928;27.662;2022-08-05T00:16:26;13.20;;;9.05;;
56911;SDS011;42800;53.928;27.662;2022-08-05T00:18:53;11.25;;;8.30;;
56911;SDS011;42800;53.928;27.662;2022-08-05T00:21:19;9.85;;;8.52;;
56911;SDS011;42800;53.928;27.662;2022-08-05T00:23:45;11.40;;;8.93;;
56911;SDS011;42800;53.928;27.662;2022-08-05T00:26:12;9.32;;;8.40;;
56911;SDS011;42800;53.928;27.662;2022-08-05T00:28:40;9.07;;;8.18;;
56911;SDS011;42800;53.928;27.662;2022-08-05T00:31:06;10.32;;;8.82;;
56911;SDS011;42800;53.928;27.662;2022-08-05T00:33:33;10.80;;;8.95;;
56911;SDS011;42800;53.928;27.662;2022-08-05T00:36:00;11.52;;;9.07;;
56911;SDS011;42800;53.928;27.662;2022-08-05T00:38:26;11.05;;;9.52;;
56911;SDS011;42800;53.928;27.662;2022-08-05T00:40:53;15.50;;;9.02;;
56911;SDS011;42800;53.928;27.662;2022-08-05T00:43:21;16.35;;;9.68;;
56911;SDS011;42800;53.928;27.662;2022-08-05T00:45:48;12.02;;;9.25;;
56911;SDS011;42800;53.928;27.662;2022-08-05T00:48:15;11.90;;;9.48;;
56911;SDS011;42800;53.928;27.662;2022-08-05T00:50:44;12.75;;;8.70;;
56911;SDS011;42800;53.928;27.662;2022-08-05T00:53:12;12.20;;;11.02;;
56911;SDS011;42800;53.928;27.662;2022-08-05T00:55:40;9.95;;;8.90;;
56911;SDS011;42800;53.928;27.662;2022-08-05T00:58:06;13.75;;;10.05;;
56911;SDS011;42800;53.928;27.662;2022-08-05T01:00:32;11.00;;;9.07;;
56911;SDS011;42800;53.928;27.662;2022-08-05T01:02:59;11.80;;;9.05;;
56911;SDS011;42800;53.928;27.662;2022-08-05T01:05:25;11.27;;;9.48;;
56911;SDS011;42800;53.928;27.662;2022-08-05T01:07:52;13.15;;;11.63;;
56911;SDS011;42800;53.928;27.662;2022-08-05T01:10:20;11.32;;;9.05;;
56911;SDS011;42800;53.928;27.662;2022-08-05T01:13:02;19.17;;;9.40;;
56911;SDS011;42800;53.928;27.662;2022-08-05T01:15:38;12.80;;;11.67;;
56911;SDS011;42800;53.928;27.662;2022-08-05T01:18:11;15.88;;;9.02;;
56911;SDS011;42800;53.928;27.662;2022-08-05T01:20:49;13.93;;;12.65;;
56911;SDS011;42800;53.928;27.662;2022-08-05T01:23:26;15.98;;;12.98;;
56911;SDS011;42800;53.928;27.662;2022-08-05T01:26:02;13.75;;;11.73;;
56911;SDS011;42800;53.928;27.662;2022-08-05T01:28:47;14.18;;;12.85;;
56911;SDS011;42800;53.928;27.662;2022-08-05T01:31:20;16.08;;;10.27;;
56911;SDS011;42800;53.928;27.662;2022-08-05T01:33:53;14.30;;;13.00;;
56911;SDS011;42800;53.928;27.662;2022-08-05T01:36:25;20.02;;;10.27;;
56911;SDS011;42800;53.928;27.662;2022-08-05T01:38:55;13.60;;;12.23;;
56911;SDS011;42800;53.928;27.662;2022-08-05T01:41:23;12.73;;;9.20;;
56911;SDS011;42800;53.928;27.662;2022-08-05T01:43:52;13.10;;;12.00;;
56911;SDS011;42800;53.928;27.662;2022-08-05T01:46:20;15.77;;;9.63;;
56911;SDS011;42800;53.928;27.662;2022-08-05T01:48:47;14.77;;;13.38;;
56911;SDS011;42800;53.928;27.662;2022-08-05T01:51:16;13.55;;;12.23;;
56911;SDS011;42800;53.928;27.662;2022-08-05T01:53:43;13.30;;;12.00;;
56911;SDS011;42800;53.928;27.662;2022-08-05T01:56:12;15.23;;;10.27;;
56911;SDS011;42800;53.928;27.662;2022-08-05T01:58:42;11.52;;;10.27;;
56911;SDS011;42800;53.928;27.662;2022-08-05T02:01:10;13.48;;;12.20;;
56911;SDS011;42800;53.928;27.662;2022-08-05T02:03:38;13.75;;;12.45;;
56911;SDS011;42800;53.928;27.662;2022-08-05T02:06:09;12.43;;;11.23;;
56911;SDS011;42800;53.928;27.662;2022-08-05T02:08:36;11.85;;;9.95;;
56911;SDS011;42800;53.928;27.662;2022-08-05T02:11:04;13.23;;;9.52;;
56911;SDS011;42800;53.928;27.662;2022-08-05T02:13:34;13.55;;;12.27;;
56911;SDS011;42800;53.928;27.662;2022-08-05T02:16:06;13.77;;;12.43;;
56911;SDS011;42800;53.928;27.662;2022-08-05T02:18:40;11.43;;;9.63;;
56911;SDS011;42800;53.928;27.662;2022-08-05T02:21:12;13.63;;;12.43;;
56911;SDS011;42800;53.928;27.662;2022-08-05T02:23:41;14.10;;;12.80;;
56911;SDS011;42800;53.928;27.662;2022-08-05T02:26:10;15.77;;;14.25;;
56911;SDS011;42800;53.928;27.662;2022-08-05T02:28:40;14.73;;;10.93;;
56911;SDS011;42800;53.928;27.662;2022-08-05T02:31:09;16.10;;;11.30;;
56911;SDS011;42800;53.928;27.662;2022-08-05T02:33:43;15.38;;;13.75;;
56911;SDS011;42800;53.928;27.662;2022-08-05T02:36:15;14.55;;;13.25;;
56911;SDS011;42800;53.928;27.662;2022-08-05T02:38:47;14.40;;;13.07;;
56911;SDS011;42800;53.928;27.662;2022-08-05T02:41:14;14.57;;;13.18;;
56911;SDS011;42800;53.928;27.662;2022-08-05T02:43:42;16.30;;;10.63;;
56911;SDS011;42800;53.928;27.662;2022-08-05T02:46:11;15.07;;;12.93;;
56911;SDS011;42800;53.928;27.662;2022-08-05T02:48:39;14.00;;;10.70;;
56911;SDS011;42800;53.928;27.662;2022-08-05T02:51:07;14.77;;;13.13;;
56911;SDS011;42800;53.928;27.662;2022-08-05T02:53:33;14.02;;;11.10;;
56911;SDS011;42800;53.928;27.662;2022-08-05T02:56:02;13.18;;;11.98;;
56911;SDS011;42800;53.928;27.662;2022-08-05T02:58:30;14.05;;;10.35;;
56911;SDS011;42800;53.928;27.662;2022-08-05T03:00:58;14.52;;;12.23;;
56911;SDS011;42800;53.928;27.662;2022-08-05T03:03:27;13.65;;;12.45;;
56911;SDS011;42800;53.928;27.662;2022-08-05T03:05:54;15.18;;;12.73;;
56911;SDS011;42800;53.928;27.662;2022-08-05T03:08:22;15.45;;;12.20;;
56911;SDS011;42800;53.928;27.662;2022-08-05T03:10:49;12.98;;;11.73;;
56911;SDS011;42800;53.928;27.662;2022-08-05T03:13:16;15.63;;;9.25;;
56911;SDS011;42800;53.928;27.662;2022-08-05T03:15:42;10.15;;;8.90;;
56911;SDS011;42800;53.928;27.662;2022-08-05T03:18:09;16.52;;;8.43;;
56911;SDS011;42800;53.928;27.662;2022-08-05T03:20:35;11.98;;;9.00;;
56911;SDS011;42800;53.928;27.662;2022-08-05T03:23:03;9.88;;;8.43;;
56911;SDS011;42800;53.928;27.662;2022-08-05T03:25:31;11.00;;;10.00;;
56911;SDS011;42800;53.928;27.662;2022-08-05T03:27:58;11.52;;;10.32;;
56911;SDS011;42800;53.928;27.662;2022-08-05T03:30:26;11.35;;;7.72;;
56911;SDS011;42800;53.928;27.662;2022-08-05T03:32:53;11.57;;;10.38;;
56911;SDS011;42800;53.928;27.662;2022-08-05T03:35:20;10.48;;;9.50;;
56911;SDS011;42800;53.928;27.662;2022-08-05T03:37:46;12.80;;;8.43;;
56911;SDS011;42800;53.928;27.662;2022-08-05T03:40:13;11.10;;;8.52;;
56911;SDS011;42800;53.928;27.662;2022-08-05T03:42:39;9.85;;;8.85;;
56911;SDS011;42800;53.928;27.662;2022-08-05T03:45:06;10.52;;;7.70;;
56911;SDS011;42800;53.928;27.662;2022-08-05T03:47:33;14.52;;;9.70;;
56911;SDS011;42800;53.928;27.662;2022-08-05T03:50:00;10.82;;;7.05;;
56911;SDS011;42800;53.928;27.662;2022-08-05T03:52:26;10.68;;;8.38;;
56911;SDS011;42800;53.928;27.662;2022-08-05T03:54:56;9.55;;;8.63;;
56911;SDS011;42800;53.928;27.662;2022-08-05T03:57:27;8.55;;;7.75;;
56911;SDS011;42800;53.928;27.662;2022-08-05T03:59:59;8.57;;;7.47;;
56911;SDS011;42800;53.928;27.662;2022-08-05T04:02:30;10.40;;;9.02;;
56911;SDS011;42800;53.928;27.662;2022-08-05T04:04:59;10.10;;;8.80;;
56911;SDS011;42800;53.928;27.662;2022-08-05T04:07:26;8.55;;;7.68;;
56911;SDS011;42800;53.928;27.662;2022-08-05T04:09:53;10.65;;;7.97;;
56911;SDS011;42800;53.928;27.662;2022-08-05T04:12:20;8.05;;;7.20;;
56911;SDS011;42800;53.928;27.662;2022-08-05T04:14:47;11.20;;;8.38;;
56911;SDS011;42800;53.928;27.662;2022-08-05T04:17:14;9.10;;;8.20;;
56911;SDS011;42800;53.928;27.662;2022-08-05T04:19:41;9.93;;;8.73;;
56911;SDS011;42800;53.928;27.662;2022-08-05T04:22:09;8.68;;;7.57;;
56911;SDS011;42800;53.928;27.662;2022-08-05T04:24:35;12.23;;;7.60;;
56911;SDS011;42800;53.928;27.662;2022-08-05T04:27:02;8.70;;;7.28;;
56911;SDS011;42800;53.928;27.662;2022-08-05T04:29:28;10.88;;;7.53;;
56911;SDS011;42800;53.928;27.662;2022-08-05T04:31:55;7.65;;;6.65;;
56911;SDS011;42800;53.928;27.662;2022-08-05T04:34:21;9.90;;;6.95;;
56911;SDS011;42800;53.928;27.662;2022-08-05T04:36:47;8.38;;;7.22;;
56911;SDS011;42800;53.928;27.662;2022-08-05T04:39:13;9.13;;;7.03;;
56911;SDS011;42800;53.928;27.662;2022-08-05T04:41:40;12.02;;;7.13;;
56911;SDS011;42800;53.928;27.662;2022-08-05T04:44:06;9.75;;;6.63;;
56911;SDS011;42800;53.928;27.662;2022-08-05T04:46:32;8.10;;;6.60;;
56911;SDS011;42800;53.928;27.662;2022-08-05T04:48:59;8.32;;;7.13;;
56911;SDS011;42800;53.928;27.662;2022-08-05T04:51:25;10.68;;;6.65;;
56911;SDS011;42800;53.928;27.662;2022-08-05T04:53:52;8.82;;;6.20;;
56911;SDS011;42800;53.928;27.662;2022-08-05T04:56:18;9.45;;;6.38;;
56911;SDS011;42800;53.928;27.662;2022-08-05T04:58:45;6.95;;;6.25;;
56911;SDS011;42800;53.928;27.662;2022-08-05T05:01:11;7.80;;;5.82;;
56911;SDS011;42800;53.928;27.662;2022-08-05T05:03:37;8.60;;;5.50;;
56911;SDS011;42800;53.928;27.662;2022-08-05T05:06:04;12.23;;;5.80;;
56911;SDS011;42800;53.928;27.662;2022-08-05T05:08:35;9.52;;;6.70;;
56911;SDS011;42800;53.928;27.662;2022-08-05T05:11:02;14.02;;;6.55;;
56911;SDS011;42800;53.928;27.662;2022-08-05T05:13:28;6.43;;;5.80;;
56911;SDS011;42800;53.928;27.662;2022-08-05T05:15:54;7.53;;;5.63;;
56911;SDS011;42800;53.928;27.662;2022-08-05T05:18:21;13.80;;;6.00;;
56911;SDS011;42800;53.928;27.662;2022-08-05T05:20:47;6.10;;;5.50;;
56911;SDS011;42800;53.928;27.662;2022-08-05T05:23:14;11.63;;;5.85;;
56911;SDS011;42800;53.928;27.662;2022-08-05T05:25:41;11.40;;;5.70;;
56911;SDS011;42800;53.928;27.662;2022-08-05T05:28:08;7.55;;;6.07;;
56911;SDS011;42800;53.928;27.662;2022-08-05T05:30:35;8.88;;;5.40;;
56911;SDS011;42800;53.928;27.662;2022-08-05T05:33:02;6.32;;;5.50;;
56911;SDS011;42800;53.928;27.662;2022-08-05T05:35:29;8.13;;;5.80;;
56911;SDS011;42800;53.928;27.662;2022-08-05T05:37:57;7.82;;;5.50;;
56911;SDS011;42800;53.928;27.662;2022-08-05T05:40:26;7.38;;;5.03;;
56911;SDS011;42800;53.928;27.662;2022-08-05T05:42:53;8.05;;;5.88;;
56911;SDS011;42800;53.928;27.662;2022-08-05T05:45:20;6.25;;;5.65;;
56911;SDS011;42800;53.928;27.662;2022-08-05T05:47:46;7.03;;;5.75;;
56911;SDS011;42800;53.928;27.662;2022-08-05T05:50:14;13.63;;;5.95;;
56911;SDS011;42800;53.928;27.662;2022-08-05T05:52:41;7.75;;;6.18;;
56911;SDS011;42800;53.928;27.662;2022-08-05T05:55:09;13.30;;;6.22;;
56911;SDS011;42800;53.928;27.662;2022-08-05T05:57:37;5.97;;;5.05;;
56911;SDS011;42800;53.928;27.662;2022-08-05T06:00:06;9.85;;;6.10;;
56911;SDS011;42800;53.928;27.662;2022-08-05T06:02:36;14.35;;;6.22;;
56911;SDS011;42800;53.928;27.662;2022-08-05T06:05:02;8.13;;;5.32;;
56911;SDS011;42800;53.928;27.662;2022-08-05T06:07:29;8.77;;;5.63;;
56911;SDS011;42800;53.928;27.662;2022-08-05T06:09:55;9.65;;;5.63;;
56911;SDS011;42800;53.928;27.662;2022-08-05T06:12:21;20.33;;;5.70;;
56911;SDS011;42800;53.928;27.662;2022-08-05T06:14:48;8.48;;;5.20;;
56911;SDS011;42800;53.928;27.662;2022-08-05T06:17:15;10.93;;;5.75;;
56911;SDS011;42800;53.928;27.662;2022-08-05T06:19:41;7.10;;;5.20;;
56911;SDS011;42800;53.928;27.662;2022-08-05T06:22:07;15.02;;;5.28;;
56911;SDS011;42800;53.928;27.662;2022-08-05T06:24:34;8.18;;;5.10;;
56911;SDS011;42800;53.928;27.662;2022-08-05T06:27:01;8.13;;;5.53;;
56911;SDS011;42800;53.928;27.662;2022-08-05T06:29:27;7.93;;;5.43;;
56911;SDS011;42800;53.928;27.662;2022-08-05T06:31:54;8.80;;;5.00;;
56911;SDS011;42800;53.928;27.662;2022-08-05T06:34:20;11.65;;;5.20;;
56911;SDS011;42800;53.928;27.662;2022-08-05T06:36:46;11.93;;;5.53;;
56911;SDS011;42800;53.928;27.662;2022-08-05T06:39:13;10.60;;;5.20;;
56911;SDS011;42800;53.928;27.662;2022-08-05T06:41:39;5.88;;;5.28;;
56911;SDS011;42800;53.928;27.662;2022-08-05T06:44:06;11.18;;;4.82;;
56911;SDS011;42800;53.928;27.662;2022-08-05T06:46:32;7.60;;;4.90;;
56911;SDS011;42800;53.928;27.662;2022-08-05T06:48:59;8.35;;;5.32;;
56911;SDS011;42800;53.928;27.662;2022-08-05T06:51:26;9.25;;;5.05;;
56911;SDS011;42800;53.928;27.662;2022-08-05T06:53:52;6.53;;;5.00;;
56911;SDS011;42800;53.928;27.662;2022-08-05T06:56:18;6.90;;;5.30;;
56911;SDS011;42800;53.928;27.662;2022-08-05T06:58:44;9.40;;;5.00;;
56911;SDS011;42800;53.928;27.662;2022-08-05T07:01:11;10.02;;;4.97;;
56911;SDS011;42800;53.928;27.662;2022-08-05T07:03:37;10.35;;;5.57;;
56911;SDS011;42800;53.928;27.662;2022-08-05T07:06:04;10.93;;;6.25;;
56911;SDS011;42800;53.928;27.662;2022-08-05T07:08:30;8.18;;;6.07;;
56911;SDS011;42800;53.928;27.662;2022-08-05T07:10:57;12.45;;;5.95;;
56911;SDS011;42800;53.928;27.662;2022-08-05T07:13:23;17.63;;;5.70;;
56911;SDS011;42800;53.928;27.662;2022-08-05T07:16:07;11.85;;;5.90;;
56911;SDS011;42800;53.928;27.662;2022-08-05T07:18:52;7.90;;;5.22;;
56911;SDS011;42800;53.928;27.662;2022-08-05T07:21:19;13.27;;;5.57;;
56911;SDS011;42800;53.928;27.662;2022-08-05T07:23:45;13.20;;;6.43;;
56911;SDS011;42800;53.928;27.662;2022-08-05T07:26:11;14.98;;;6.45;;
56911;SDS011;42800;53.928;27.662;2022-08-05T07:28:37;9.35;;;7.50;;
56911;SDS011;42800;53.928;27.662;2022-08-05T07:31:05;7.38;;;6.43;;
56911;SDS011;42800;53.928;27.662;2022-08-05T07:33:32;12.45;;;6.32;;
56911;SDS011;42800;53.928;27.662;2022-08-05T07:35:58;9.88;;;6.35;;
56911;SDS011;42800;53.928;27.662;2022-08-05T07:38:25;8.88;;;5.53;;
56911;SDS011;42800;53.928;27.662;2022-08-05T07:40:52;12.00;;;5.93;;
56911;SDS011;42800;53.928;27.662;2022-08-05T07:43:18;9.30;;;5.38;;
56911;SDS011;42800;53.928;27.662;2022-08-05T07:45:45;10.23;;;5.25;;
56911;SDS011;42800;53.928;27.662;2022-08-05T07:48:11;9.40;;;5.60;;
56911;SDS011;42800;53.928;27.662;2022-08-05T07:50:37;6.72;;;5.50;;
56911;SDS011;42800;53.928;27.662;2022-08-05T07:53:03;9.73;;;5.80;;
56911;SDS011;42800;53.928;27.662;2022-08-05T07:55:31;11.40;;;5.60;;
56911;SDS011;42800;53.928;27.662;2022-08-05T07:57:57;7.68;;;5.45;;
56911;SDS011;42800;53.928;27.662;2022-08-05T08:00:23;10.27;;;5.80;;
56911;SDS011;42800;53.928;27.662;2022-08-05T08:02:49;10.43;;;6.15;;
56911;SDS011;42800;53.928;27.662;2022-08-05T08:05:16;10.13;;;6.60;;
56911;SDS011;42800;53.928;27.662;2022-08-05T08:07:42;7.57;;;6.03;;
56911;SDS011;42800;53.928;27.662;2022-08-05T08:10:08;8.13;;;5.97;;
56911;SDS011;42800;53.928;27.662;2022-08-05T08:12:35;6.72;;;5.93;;
56911;SDS011;42800;53.928;27.662;2022-08-05T08:15:02;9.00;;;6.32;;
56911;SDS011;42800;53.928;27.662;2022-08-05T08:17:29;6.97;;;5.78;;
56911;SDS011;42800;53.928;27.662;2022-08-05T08:19:55;5.93;;;5.43;;
56911;SDS011;42800;53.928;27.662;2022-08-05T08:22:24;7.05;;;6.07;;
56911;SDS011;42800;53.928;27.662;2022-08-05T08:24:51;9.20;;;5.38;;
56911;SDS011;42800;53.928;27.662;2022-08-05T08:27:17;12.18;;;6.18;;
56911;SDS011;42800;53.928;27.662;2022-08-05T08:29:44;9.45;;;6.60;;
56911;SDS011;42800;53.928;27.662;2022-08-05T08:32:10;8.25;;;5.53;;
56911;SDS011;42800;53.928;27.662;2022-08-05T08:34:37;7.82;;;6.15;;
56911;SDS011;42800;53.928;27.662;2022-08-05T08:37:03;6.70;;;6.10;;
56911;SDS011;42800;53.928;27.662;2022-08-05T08:39:29;7.10;;;5.93;;
56911;SDS011;42800;53.928;27.662;2022-08-05T08:41:55;12.07;;;6.18;;
56911;SDS011;42800;53.928;27.662;2022-08-05T08:44:24;6.53;;;5.50;;
56911;SDS011;42800;53.928;27.662;2022-08-05T08:46:55;7.00;;;6.05;;
56911;SDS011;42800;53.928;27.662;2022-08-05T08:49:22;9.13;;;5.70;;
56911;SDS011;42800;53.928;27.662;2022-08-05T08:51:52;8.68;;;6.25;;
56911;SDS011;42800;53.928;27.662;2022-08-05T08:54:32;6.53;;;5.90;;
56911;SDS011;42800;53.928;27.662;2022-08-05T08:57:00;8.30;;;5.55;;
56911;SDS011;42800;53.928;27.662;2022-08-05T08:59:26;7.43;;;6.05;;
56911;SDS011;42800;53.928;27.662;2022-08-05T09:01:53;10.65;;;6.20;;
56911;SDS011;42800;53.928;27.662;2022-08-05T09:04:20;7.35;;;6.35;;
56911;SDS011;42800;53.928;27.662;2022-08-05T09:06:47;10.30;;;6.28;;
56911;SDS011;42800;53.928;27.662;2022-08-05T09:09:13;8.38;;;5.78;;
56911;SDS011;42800;53.928;27.662;2022-08-05T09:11:40;9.45;;;6.05;;
56911;SDS011;42800;53.928;27.662;2022-08-05T09:14:06;12.43;;;5.93;;
56911;SDS011;42800;53.928;27.662;2022-08-05T09:16:33;9.07;;;6.30;;
56911;SDS011;42800;53.928;27.662;2022-08-05T09:18:59;9.10;;;6.13;;
56911;SDS011;42800;53.928;27.662;2022-08-05T09:21:27;10.48;;;6.60;;
56911;SDS011;42800;53.928;27.662;2022-08-05T09:24:02;6.45;;;5.95;;
56911;SDS011;42800;53.928;27.662;2022-08-05T09:26:30;16.45;;;6.75;;
56911;SDS011;42800;53.928;27.662;2022-08-05T09:28:58;8.23;;;5.78;;
56911;SDS011;42800;53.928;27.662;2022-08-05T09:31:26;15.25;;;6.15;;
56911;SDS011;42800;53.928;27.662;2022-08-05T09:33:53;11.82;;;6.30;;
56911;SDS011;42800;53.928;27.662;2022-08-05T09:36:20;9.57;;;6.07;;
56911;SDS011;42800;53.928;27.662;2022-08-05T09:38:57;7.03;;;6.32;;
56911;SDS011;42800;53.928;27.662;2022-08-05T09:41:24;6.55;;;5.82;;
56911;SDS011;42800;53.928;27.662;2022-08-05T09:43:51;7.55;;;6.15;;
56911;SDS011;42800;53.928;27.662;2022-08-05T09:46:25;9.68;;;5.95;;
56911;SDS011;42800;53.928;27.662;2022-08-05T09:48:52;8.82;;;6.38;;
56911;SDS011;42800;53.928;27.662;2022-08-05T09:51:29;12.05;;;6.38;;
56911;SDS011;42800;53.928;27.662;2022-08-05T09:53:57;11.98;;;6.32;;
56911;SDS011;42800;53.928;27.662;2022-08-05T09:56:23;10.18;;;6.30;;
56911;SDS011;42800;53.928;27.662;2022-08-05T09:58:57;8.40;;;6.18;;
56911;SDS011;42800;53.928;27.662;2022-08-05T10:01:24;9.27;;;5.90;;
56911;SDS011;42800;53.928;27.662;2022-08-05T10:03:54;9.93;;;6.78;;
56911;SDS011;42800;53.928;27.662;2022-08-05T10:06:21;9.23;;;6.07;;
56911;SDS011;42800;53.928;27.662;2022-08-05T10:08:47;9.73;;;5.82;;
56911;SDS011;42800;53.928;27.662;2022-08-05T10:11:15;6.18;;;5.57;;
56911;SDS011;42800;53.928;27.662;2022-08-05T10:13:42;7.20;;;6.50;;
56911;SDS011;42800;53.928;27.662;2022-08-05T10:18:54;9.55;;;7.10;;
56911;SDS011;42800;53.928;27.662;2022-08-05T10:21:21;8.60;;;6.13;;
56911;SDS011;42800;53.928;27.662;2022-08-05T10:23:47;12.18;;;7.07;;
56911;SDS011;42800;53.928;27.662;2022-08-05T10:26:15;6.70;;;6.05;;
56911;SDS011;42800;53.928;27.662;2022-08-05T10:28:41;9.23;;;6.70;;
56911;SDS011;42800;53.928;27.662;2022-08-05T10:31:09;9.10;;;6.53;;
56911;SDS011;42800;53.928;27.662;2022-08-05T10:33:37;9.40;;;6.03;;
56911;SDS011;42800;53.928;27.662;2022-08-05T10:36:04;8.90;;;5.45;;
56911;SDS011;42800;53.928;27.662;2022-08-05T10:38:31;6.85;;;5.88;;
56911;SDS011;42800;53.928;27.662;2022-08-05T10:41:01;6.07;;;5.40;;
56911;SDS011;42800;53.928;27.662;2022-08-05T10:43:38;6.97;;;5.38;;
56911;SDS011;42800;53.928;27.662;2022-08-05T10:46:13;7.78;;;5.78;;
56911;SDS011;42800;53.928;27.662;2022-08-05T10:48:41;8.88;;;5.28;;
56911;SDS011;42800;53.928;27.662;2022-08-05T10:51:08;7.57;;;5.70;;
56911;SDS011;42800;53.928;27.662;2022-08-05T10:53:40;8.48;;;5.40;;
56911;SDS011;42800;53.928;27.662;2022-08-05T10:56:08;6.03;;;5.22;;
56911;SDS011;42800;53.928;27.662;2022-08-05T10:58:46;7.20;;;5.40;;
56911;SDS011;42800;53.928;27.662;2022-08-05T11:01:15;6.75;;;5.25;;
56911;SDS011;42800;53.928;27.662;2022-08-05T11:04:01;6.22;;;5.13;;
56911;SDS011;42800;53.928;27.662;2022-08-05T11:06:32;8.10;;;5.32;;
56911;SDS011;42800;53.928;27.662;2022-08-05T11:09:12;6.50;;;5.32;;
56911;SDS011;42800;53.928;27.662;2022-08-05T11:14:11;8.10;;;5.43;;
56911;SDS011;42800;53.928;27.662;2022-08-05T11:16:38;6.10;;;5.40;;
56911;SDS011;42800;53.928;27.662;2022-08-05T11:19:23;6.35;;;5.75;;
56911;SDS011;42800;53.928;27.662;2022-08-05T11:21:51;5.50;;;5.00;;
56911;SDS011;42800;53.928;27.662;2022-08-05T11:24:17;6.50;;;5.15;;
56911;SDS011;42800;53.928;27.662;2022-08-05T11:26:45;6.45;;;5.70;;
56911;SDS011;42800;53.928;27.662;2022-08-05T11:34:50;7.97;;;5.65;;
56911;SDS011;42800;53.928;27.662;2022-08-05T11:40:32;6.32;;;5.40;;
56911;SDS011;42800;53.928;27.662;2022-08-05T11:43:21;6.20;;;5.00;;
56911;SDS011;42800;53.928;27.662;2022-08-05T11:45:49;6.20;;;5.60;;
56911;SDS011;42800;53.928;27.662;2022-08-05T11:48:15;6.45;;;5.57;;
56911;SDS011;42800;53.928;27.662;2022-08-05T11:50:41;6.38;;;5.60;;
56911;SDS011;42800;53.928;27.662;2022-08-05T11:53:08;9.20;;;5.93;;
56911;SDS011;42800;53.928;27.662;2022-08-05T11:55:34;6.45;;;5.80;;
56911;SDS011;42800;53.928;27.662;2022-08-05T11:58:00;8.20;;;5.53;;
56911;SDS011;42800;53.928;27.662;2022-08-05T12:00:27;7.78;;;5.70;;
56911;SDS011;42800;53.928;27.662;2022-08-05T12:02:55;5.95;;;5.38;;
56911;SDS011;42800;53.928;27.662;2022-08-05T12:05:25;6.30;;;5.63;;
56911;SDS011;42800;53.928;27.662;2022-08-05T12:07:55;5.40;;;5.00;;
56911;SDS011;42800;53.928;27.662;2022-08-05T12:10:23;6.95;;;5.38;;
56911;SDS011;42800;53.928;27.662;2022-08-05T12:12:51;5.90;;;5.30;;
56911;SDS011;42800;53.928;27.662;2022-08-05T12:15:18;7.78;;;5.95;;
56911;SDS011;42800;53.928;27.662;2022-08-05T12:17:45;6.20;;;5.57;;
56911;SDS011;42800;53.928;27.662;2022-08-05T12:20:12;6.97;;;5.40;;
56911;SDS011;42800;53.928;27.662;2022-08-05T12:22:38;7.68;;;5.25;;
56911;SDS011;42800;53.928;27.662;2022-08-05T12:25:05;9.25;;;5.95;;
56911;SDS011;42800;53.928;27.662;2022-08-05T12:27:32;12.88;;;6.10;;
56911;SDS011;42800;53.928;27.662;2022-08-05T12:29:59;9.05;;;5.40;;
56911;SDS011;42800;53.928;27.662;2022-08-05T12:32:26;5.90;;;5.38;;
56911;SDS011;42800;53.928;27.662;2022-08-05T12:34:52;6.30;;;5.43;;
56911;SDS011;42800;53.928;27.662;2022-08-05T12:37:20;9.25;;;5.40;;
56911;SDS011;42800;53.928;27.662;2022-08-05T12:39:46;8.27;;;5.78;;
56911;SDS011;42800;53.928;27.662;2022-08-05T12:42:12;8.20;;;5.65;;
56911;SDS011;42800;53.928;27.662;2022-08-05T12:44:43;8.65;;;5.53;;
56911;SDS011;42800;53.928;27.662;2022-08-05T12:47:11;6.60;;;5.90;;
56911;SDS011;42800;53.928;27.662;2022-08-05T12:49:38;8.13;;;5.40;;
56911;SDS011;42800;53.928;27.662;2022-08-05T12:52:10;7.00;;;6.05;;
56911;SDS011;42800;53.928;27.662;2022-08-05T12:54:39;6.20;;;5.50;;
56911;SDS011;42800;53.928;27.662;2022-08-05T12:57:06;7.15;;;5.43;;
56911;SDS011;42800;53.928;27.662;2022-08-05T12:59:42;7.57;;;6.18;;
56911;SDS011;42800;53.928;27.662;2022-08-05T13:02:09;8.35;;;6.10;;
56911;SDS011;42800;53.928;27.662;2022-08-05T13:04:36;7.28;;;5.78;;
56911;SDS011;42800;53.928;27.662;2022-08-05T13:07:04;6.78;;;5.55;;
56911;SDS011;42800;53.928;27.662;2022-08-05T13:09:34;7.82;;;5.70;;
56911;SDS011;42800;53.928;27.662;2022-08-05T13:12:02;7.03;;;5.97;;
56911;SDS011;42800;53.928;27.662;2022-08-05T13:14:33;7.30;;;6.20;;
56911;SDS011;42800;53.928;27.662;2022-08-05T13:17:01;8.77;;;6.13;;
56911;SDS011;42800;53.928;27.662;2022-08-05T13:19:33;7.05;;;6.22;;
56911;SDS011;42800;53.928;27.662;2022-08-05T13:21:59;10.30;;;6.00;;
56911;SDS011;42800;53.928;27.662;2022-08-05T13:24:26;7.03;;;6.32;;
56911;SDS011;42800;53.928;27.662;2022-08-05T13:26:52;8.95;;;6.13;;
56911;SDS011;42800;53.928;27.662;2022-08-05T13:29:19;6.90;;;6.22;;
56911;SDS011;42800;53.928;27.662;2022-08-05T13:31:45;10.70;;;5.57;;
56911;SDS011;42800;53.928;27.662;2022-08-05T13:34:11;9.52;;;5.95;;
56911;SDS011;42800;53.928;27.662;2022-08-05T13:36:38;8.32;;;5.60;;
56911;SDS011;42800;53.928;27.662;2022-08-05T13:39:04;9.63;;;5.28;;
56911;SDS011;42800;53.928;27.662;2022-08-05T13:41:31;7.00;;;5.43;;
56911;SDS011;42800;53.928;27.662;2022-08-05T13:43:58;6.82;;;5.00;;
56911;SDS011;42800;53.928;27.662;2022-08-05T13:46:25;6.10;;;5.50;;
56911;SDS011;42800;53.928;27.662;2022-08-05T13:48:52;6.13;;;5.63;;
56911;SDS011;42800;53.928;27.662;2022-08-05T13:51:24;6.55;;;5.72;;
56911;SDS011;42800;53.928;27.662;2022-08-05T13:53:52;6.18;;;5.57;;
56911;SDS011;42800;53.928;27.662;2022-08-05T13:56:18;6.53;;;5.65;;
56911;SDS011;42800;53.928;27.662;2022-08-05T13:58:45;11.23;;;6.40;;
56911;SDS011;42800;53.928;27.662;2022-08-05T14:01:11;7.47;;;5.90;;
56911;SDS011;42800;53.928;27.662;2022-08-05T14:03:38;6.45;;;5.65;;
56911;SDS011;42800;53.928;27.662;2022-08-05T14:06:05;8.63;;;5.43;;
56911;SDS011;42800;53.928;27.662;2022-08-05T14:08:31;7.57;;;5.20;;
56911;SDS011;42800;53.928;27.662;2022-08-05T14:10:57;6.35;;;5.70;;
56911;SDS011;42800;53.928;27.662;2022-08-05T14:13:23;8.50;;;6.10;;
56911;SDS011;42800;53.928;27.662;2022-08-05T14:15:49;10.63;;;5.80;;
56911;SDS011;42800;53.928;27.662;2022-08-05T14:18:16;8.40;;;5.95;;
56911;SDS011;42800;53.928;27.662;2022-08-05T14:20:43;6.40;;;5.80;;
56911;SDS011;42800;53.928;27.662;2022-08-05T14:23:09;7.68;;;6.18;;
56911;SDS011;42800;53.928;27.662;2022-08-05T14:25:35;8.15;;;5.25;;
56911;SDS011;42800;53.928;27.662;2022-08-05T14:28:02;8.30;;;5.53;;
56911;SDS011;42800;53.928;27.662;2022-08-05T14:30:28;9.23;;;5.38;;
56911;SDS011;42800;53.928;27.662;2022-08-05T14:32:54;7.57;;;5.57;;
56911;SDS011;42800;53.928;27.662;2022-08-05T14:35:21;6.50;;;5.60;;
56911;SDS011;42800;53.928;27.662;2022-08-05T14:37:48;7.57;;;5.93;;
56911;SDS011;42800;53.928;27.662;2022-08-05T14:40:14;6.40;;;5.57;;
56911;SDS011;42800;53.928;27.662;2022-08-05T14:42:40;8.30;;;5.30;;
56911;SDS011;42800;53.928;27.662;2022-08-05T14:45:07;6.25;;;5.38;;
56911;SDS011;42800;53.928;27.662;2022-08-05T14:47:34;9.35;;;5.35;;